createdAt,value
2019-02-14T00:04:33.729Z,10.10
2019-02-14T00:10:32.247Z,10.58
2019-02-14T00:16:30.796Z,11.75
2019-02-14T00:22:26.316Z,12.65
2019-02-14T00:28:21.778Z,10.00
2019-02-14T00:34:42.339Z,8.10
2019-02-14T00:40:28.043Z,9.55
2019-02-14T00:46:23.552Z,8.60
2019-02-14T00:52:11.205Z,8.95
2019-02-14T00:58:06.512Z,6.62
2019-02-14T01:04:04.039Z,9.98
2019-02-14T01:09:59.892Z,8.00
2019-02-14T01:15:43.417Z,8.10
2019-02-14T01:22:04.158Z,7.72
2019-02-14T01:27:54.218Z,6.87
2019-02-14T01:33:50.944Z,8.10
2019-02-14T01:40:24.358Z,10.70
2019-02-14T01:46:08.394Z,12.90
2019-02-14T01:51:56.535Z,10.13
2019-02-14T01:57:39.313Z,9.80
2019-02-14T02:03:59.944Z,12.10
2019-02-14T02:09:57.932Z,10.98
2019-02-14T02:15:56.824Z,14.33
2019-02-14T02:21:52.522Z,12.95
2019-02-14T02:28:03.567Z,13.75
2019-02-14T02:34:02.504Z,18.25
2019-02-14T02:40:01.271Z,16.05
2019-02-14T02:46:23.081Z,19.20
2019-02-14T02:52:20.545Z,15.15
2019-02-14T02:58:28.978Z,15.95
2019-02-14T03:04:25.338Z,17.45
2019-02-14T03:10:23.157Z,20.02
2019-02-14T03:16:11.542Z,22.60
2019-02-14T03:22:06.425Z,17.62
2019-02-14T03:28:15.657Z,17.65
2019-02-14T03:34:11.480Z,19.92
2019-02-14T03:40:20.895Z,17.12
2019-02-14T03:46:21.104Z,14.43
2019-02-14T03:52:42.039Z,22.10
2019-02-14T03:58:30.925Z,20.35
2019-02-14T04:04:26.959Z,20.45
2019-02-14T04:10:37.155Z,23.98
2019-02-14T04:16:32.647Z,17.92
2019-02-14T04:22:39.306Z,18.55
2019-02-14T04:28:36.604Z,19.87
2019-02-14T04:34:32.001Z,20.90
2019-02-14T04:40:33.812Z,19.73
2019-02-14T04:46:18.077Z,22.32
2019-02-14T04:52:27.952Z,22.93
2019-02-14T04:58:25.318Z,22.98
2019-02-14T05:04:31.941Z,17.62
2019-02-14T05:10:27.467Z,20.97
2019-02-14T05:16:14.909Z,23.18
2019-02-14T05:22:36.500Z,21.60
2019-02-14T05:28:32.172Z,21.57
2019-02-14T05:34:41.042Z,29.10
2019-02-14T05:40:39.375Z,35.03
2019-02-14T05:46:23.554Z,37.53
2019-02-14T05:52:33.069Z,28.60
2019-02-14T05:58:29.348Z,33.73
2019-02-14T06:04:39.601Z,27.00
2019-02-14T06:10:35.153Z,21.48
2019-02-14T06:16:46.627Z,17.52
2019-02-14T06:22:46.392Z,16.65
2019-02-14T06:28:43.907Z,19.85
2019-02-14T06:34:44.540Z,24.15
2019-02-14T06:40:54.165Z,21.42
2019-02-14T06:46:50.931Z,28.47
2019-02-14T06:52:48.519Z,19.10
2019-02-14T06:58:32.686Z,23.67
2019-02-14T07:04:29.814Z,19.70
2019-02-14T07:10:39.615Z,18.65
2019-02-14T07:16:36.375Z,16.87
2019-02-14T07:22:58.187Z,16.23
2019-02-14T07:28:45.813Z,18.23
2019-02-14T07:34:41.405Z,16.32
2019-02-14T07:40:50.054Z,16.62
2019-02-14T07:46:47.589Z,14.43
2019-02-14T07:53:01.690Z,15.13
2019-02-14T07:58:47.297Z,14.00
2019-02-14T08:04:43.037Z,15.18
2019-02-14T08:10:52.623Z,15.48
2019-02-14T08:16:49.516Z,14.85
2019-02-14T08:22:58.034Z,18.30
2019-02-14T08:28:53.532Z,17.17
2019-02-14T08:35:15.071Z,14.33
2019-02-14T08:41:13.687Z,15.88
2019-02-14T08:47:03.207Z,14.85
2019-02-14T08:53:04.682Z,13.98
2019-02-14T08:59:00.480Z,13.35
2019-02-14T09:04:58.007Z,15.45
2019-02-14T09:11:11.447Z,17.55
2019-02-14T09:17:08.222Z,15.28
2019-02-14T09:23:06.380Z,14.33
2019-02-14T09:29:04.324Z,19.23
2019-02-14T09:35:01.648Z,16.60
2019-02-14T09:41:12.498Z,13.10
2019-02-14T09:47:09.861Z,12.37
2019-02-14T09:53:12.330Z,12.43
2019-02-14T09:58:55.837Z,12.53
2019-02-14T10:04:52.352Z,14.05
2019-02-14T10:11:00.983Z,11.22
2019-02-14T10:16:56.828Z,13.05
2019-02-14T10:22:54.057Z,13.88
2019-02-14T10:28:43.552Z,10.08
2019-02-14T10:34:54.777Z,11.28
2019-02-14T10:40:49.738Z,12.30
2019-02-14T10:46:35.799Z,12.85
2019-02-14T10:52:33.719Z,11.75
2019-02-14T11:01:50.217Z,10.30
2019-02-14T11:07:48.738Z,9.58
2019-02-14T11:13:58.608Z,11.25
2019-02-14T11:19:55.901Z,10.95
2019-02-14T11:26:04.541Z,17.95
2019-02-14T11:32:01.120Z,11.08
2019-02-14T11:37:45.771Z,11.00
2019-02-14T11:43:44.077Z,11.55
2019-02-14T11:49:56.861Z,14.95
2019-02-14T11:55:53.571Z,11.60
2019-02-14T12:05:25.018Z,11.10
2019-02-14T12:11:21.718Z,12.55
2019-02-14T12:17:28.849Z,11.68
2019-02-14T12:23:25.887Z,10.00
2019-02-14T12:29:21.417Z,10.35
2019-02-14T12:35:29.870Z,10.40
2019-02-14T12:41:26.143Z,10.32
2019-02-14T12:47:11.023Z,14.65
2019-02-14T12:53:08.563Z,13.62
2019-02-14T12:59:20.040Z,12.78
2019-02-14T13:05:10.714Z,15.45
2019-02-14T13:11:08.310Z,20.12
2019-02-14T13:17:06.659Z,13.38
2019-02-14T13:22:50.403Z,16.45
2019-02-14T13:29:10.631Z,13.05
2019-02-14T13:35:08.263Z,16.65
2019-02-14T13:41:08.527Z,17.67
2019-02-14T13:47:21.267Z,23.73
2019-02-14T13:53:20.073Z,17.40
2019-02-14T13:59:14.382Z,18.55
2019-02-14T14:05:22.432Z,16.87
2019-02-14T14:11:17.214Z,20.70
2019-02-14T14:17:25.386Z,18.25
2019-02-14T14:23:21.941Z,16.65
2019-02-14T14:29:16.428Z,22.42
2019-02-14T14:35:12.967Z,22.80
2019-02-14T14:41:22.036Z,19.35
2019-02-14T14:47:22.588Z,19.20
2019-02-14T14:53:44.977Z,21.52
2019-02-14T14:59:42.573Z,21.33
2019-02-14T15:05:52.099Z,20.23
2019-02-14T15:11:36.617Z,18.30
2019-02-14T15:17:56.929Z,24.05
2019-02-14T15:24:05.306Z,26.80
2019-02-14T15:30:02.714Z,25.80
2019-02-14T15:36:11.148Z,20.27
2019-02-14T15:41:56.448Z,20.17
2019-02-14T15:47:52.128Z,19.12
2019-02-14T15:54:00.611Z,23.75
2019-02-14T15:59:57.349Z,21.10
2019-02-14T16:05:56.928Z,23.07
2019-02-14T16:11:40.616Z,23.65
2019-02-14T16:18:02.006Z,28.05
2019-02-14T16:23:57.757Z,27.90
2019-02-14T16:29:55.097Z,24.27
2019-02-14T16:35:52.638Z,27.65
2019-02-14T16:42:03.340Z,26.55
2019-02-14T16:48:02.863Z,26.62
2019-02-14T16:54:25.654Z,22.15
2019-02-14T17:00:11.091Z,25.85
2019-02-14T17:06:18.936Z,25.17
2019-02-14T17:12:19.329Z,27.65
2019-02-14T17:18:19.648Z,27.82
2019-02-14T17:24:16.592Z,28.75
2019-02-14T17:30:14.368Z,25.72
2019-02-14T17:36:14.409Z,27.55
2019-02-14T17:42:09.941Z,28.50
2019-02-14T17:48:09.280Z,30.85
2019-02-14T17:53:58.079Z,36.53
2019-02-14T18:00:00.722Z,37.63
2019-02-14T18:05:56.147Z,28.50
2019-02-14T18:11:54.948Z,32.93
2019-02-14T18:17:52.551Z,27.67
2019-02-14T18:24:03.199Z,28.62
2019-02-14T18:29:59.202Z,35.98
2019-02-14T18:36:06.596Z,30.97
2019-02-14T18:42:02.895Z,32.05
2019-02-14T18:48:12.293Z,41.15
2019-02-14T18:54:08.822Z,40.60
2019-02-14T19:00:18.589Z,35.85
2019-02-14T19:06:21.097Z,31.48
2019-02-14T19:12:17.848Z,34.43
2019-02-14T19:18:15.912Z,26.80
2019-02-14T19:24:13.549Z,32.67
2019-02-14T19:30:11.423Z,32.63
2019-02-14T19:36:11.881Z,39.58
2019-02-14T19:42:07.340Z,34.70
2019-02-14T19:48:02.563Z,35.28
2019-02-14T19:54:12.464Z,35.63
2019-02-14T20:00:09.634Z,34.78
2019-02-14T20:05:55.679Z,33.10
2019-02-14T20:11:55.223Z,38.17
2019-02-14T20:17:39.403Z,37.73
2019-02-14T20:23:51.074Z,44.38
2019-02-14T20:29:48.868Z,37.42
2019-02-14T20:35:57.509Z,33.65
2019-02-14T20:41:53.540Z,36.35
2019-02-14T20:48:02.222Z,34.80
2019-02-14T20:54:01.220Z,32.17
2019-02-14T20:59:58.533Z,38.38
2019-02-14T21:05:55.293Z,31.87
2019-02-14T21:11:54.991Z,32.35
2019-02-14T21:17:52.535Z,39.92
2019-02-14T21:23:37.866Z,38.45
2019-02-14T21:29:36.155Z,30.15
2019-02-14T21:35:48.930Z,36.90
2019-02-14T21:41:45.403Z,36.33
2019-02-14T21:47:40.928Z,34.92
2019-02-14T21:53:26.341Z,29.60
2019-02-14T21:59:24.109Z,27.45
2019-02-14T22:05:34.729Z,26.97
2019-02-14T22:11:34.445Z,31.87
2019-02-14T22:17:31.252Z,26.40
2019-02-14T22:23:31.222Z,30.90
2019-02-14T22:29:30.059Z,30.45
2019-02-14T22:35:27.894Z,35.73
2019-02-14T22:41:36.974Z,29.05
2019-02-14T22:47:34.694Z,34.40
2019-02-14T22:53:20.418Z,32.93
2019-02-14T22:59:31.803Z,35.60
2019-02-14T23:05:27.360Z,36.48
2019-02-14T23:11:48.851Z,31.93
2019-02-14T23:17:33.696Z,33.67
2019-02-14T23:23:31.866Z,29.82
2019-02-14T23:29:30.751Z,31.23
2019-02-14T23:35:25.977Z,21.45
2019-02-14T23:41:37.546Z,26.02
2019-02-14T23:47:33.309Z,26.65
2019-02-14T23:53:39.647Z,26.07
2019-02-14T23:59:38.077Z,22.80
